Thunder radar more information blitzortung!


Radar de pluja more information rain snow radar


Visita la nostra xarxa de llocs de meteo:

Template documentation
and downloads

And another site



No particular awareness of the weather is required.    There are no Weather-warnings

Pagina Historial Weather Underground text

Diari Resum May 13, 2017 Unitats:  Imperial    Mètric   Tant
« Previous Dia
SegĂźent Dia »
Diari Setmana Mensual Anual Personalitzada
  Maxima: Minima: Media:
Temperatura: 80.1 °F 55.9 °F 71.1 °F
Punt de rosada: 53.4 °F 42.4 °F 46.8 °F
Humitat: 72 % 28 % 44 %
Wind Speed: 15 mph 0 mph 6 mph
RĂ fegues de vent: 15 mph - -
Vent:- - WSW
Pression baro: 30.1 in 29.8 in -
Precipitacions: 0 in    
Historical Graphs
 
 
Dades de taula per May 13, 2017
Temps Temperatura Punt de rosada Pression baro Vent Wind Speed RĂ fegues de vent Humitat Rainfall Rate (Hourly)
00:04 60.8 °F 49.8 °F 29.8 in WSW 6.9 mph 6.9 mph 67 % 0 in
00:05 58.3 °F 48.2 °F 29.8 in Calm   1 mph 69 % 0 in
00:09 60.8 °F 50.2 °F 29.8 in SW 3.5 mph 3.5 mph 68 % 0 in
00:14 60.4 °F 49.8 °F 29.8 in SSW 5.8 mph 5.8 mph 68 % 0 in
00:15 58.3 °F 47.8 °F 29.8 in West 1 mph 2 mph 68 % 0 in
00:25 58.3 °F 47.8 °F 29.9 in West 1 mph 2 mph 68 % 0 in
00:35 58.3 °F 47.8 °F 29.9 in WNW 1 mph 1 mph 68 % 0 in
00:45 58.5 °F 47.8 °F 29.9 in Calm   2 mph 68 % 0 in
00:55 58.1 °F 47.7 °F 29.9 in SW 1 mph 2 mph 68 % 0 in
01:05 57.6 °F 47.5 °F 29.9 in Calm   2 mph 69 % 0 in
01:15 56.5 °F 46.4 °F 29.9 in SW 1 mph 3 mph 69 % 0 in
01:25 56.5 °F 46.8 °F 29.9 in Calm     70 % 0 in
01:35 56.3 °F 46.2 °F 29.9 in SW 3 mph 3 mph 69 % 0 in
01:45 55.9 °F 46.8 °F 29.9 in SW 2 mph 3 mph 71 % 0 in
01:55 56.3 °F 46.9 °F 29.9 in SW 2 mph 3 mph 71 % 0 in
02:05 57.7 °F 48.7 °F 29.9 in WSW 2 mph 3 mph 72 % 0 in
02:15 57.9 °F 48.9 °F 29.9 in WSW 2 mph 2 mph 72 % 0 in
02:25 58.5 °F 49.1 °F 29.9 in SW 1 mph 3 mph 71 % 0 in
02:35 59.2 °F 49.8 °F 29.9 in Calm   1 mph 71 % 0 in
02:45 60.1 °F 50.5 °F 29.9 in SW 1 mph 3 mph 71 % 0 in
02:55 61 °F 51.1 °F 29.9 in South 1 mph 2 mph 70 % 0 in
03:05 60.8 °F 50.5 °F 29.9 in ESE 3 mph 4 mph 69 % 0 in
03:25 63.3 °F 52.2 °F 29.9 in SE 1 mph 3 mph 67 % 0 in
03:35 64.2 °F 52.5 °F 29.9 in SSE 1 mph 2 mph 66 % 0 in
03:45 64.8 °F 52.7 °F 29.9 in SW 1 mph 2 mph 65 % 0 in
03:55 65.1 °F 52.5 °F 29.9 in WSW 2 mph 3 mph 64 % 0 in
04:05 64.9 °F 52 °F 29.9 in WSW 2 mph 5 mph 63 % 0 in
04:15 64.9 °F 51.6 °F 29.9 in WSW 3 mph 4 mph 62 % 0 in
04:25 65.8 °F 52.5 °F 29.9 in WSW 2 mph 3 mph 62 % 0 in
04:35 66.2 °F 52 °F 29.9 in WSW 3 mph 6 mph 60 % 0 in
04:45 66.6 °F 51.8 °F 29.9 in WSW 5 mph 6 mph 59 % 0 in
04:55 67.6 °F 52.3 °F 29.9 in West 3 mph 3 mph 58 % 0 in
05:05 67.6 °F 52.3 °F 29.9 in West 5 mph 6 mph 58 % 0 in
05:15 68.2 °F 52 °F 29.9 in West 2 mph 4 mph 56 % 0 in
10:21 68.7 °F 52 °F 30 in West 5.4 mph 5.4 mph 55 % 0 in
10:26 69.1 °F 52.2 °F 29.9 in WSW 4.6 mph 4.6 mph 55 % 0 in
10:31 69.4 °F 52.2 °F 29.9 in SW 3.5 mph 3.5 mph 54 % 0 in
10:36 70.3 °F 52.3 °F 29.9 in WSW 5.8 mph 5.8 mph 53 % 0 in
10:41 70.5 °F 52.5 °F 30 in WSW 5.8 mph 5.8 mph 53 % 0 in
10:46 70.9 °F 52.9 °F 30 in WSW 9.2 mph 9.2 mph 53 % 0 in
10:51 71.2 °F 52.7 °F 30 in North 9.2 mph 9.2 mph 52 % 0 in
10:56 72.1 °F 53.4 °F 30 in WSW 4.6 mph 4.6 mph 52 % 0 in
11:01 71.6 °F 52.5 °F 30 in WSW 5.8 mph 5.8 mph 51 % 0 in
11:02 71.8 °F 52.7 °F 30 in WSW 4.6 mph 4.6 mph 51 % 0 in
11:07 72 °F 52.9 °F 30 in SW 4.6 mph 4.6 mph 51 % 0 in
11:12 72.5 °F 52.9 °F 30 in WSW 8.5 mph 8.5 mph 50 % 0 in
11:17 72.1 °F 52 °F 30 in SW 4 mph 4 mph 49 % 0 in
11:22 72.3 °F 52.2 °F 30 in West 5.8 mph 5.8 mph 49 % 0 in
11:27 72.5 °F 52.2 °F 30 in West 5.8 mph 5.8 mph 49 % 0 in
11:32 73.2 °F 52.9 °F 30 in West 5.8 mph 5.8 mph 49 % 0 in
11:37 73 °F 52.2 °F 30 in WNW 9.2 mph 9.2 mph 48 % 0 in
11:42 73.2 °F 52.3 °F 30 in WSW 8.1 mph 8.1 mph 48 % 0 in
11:47 73.8 °F 52.3 °F 30 in West 5.8 mph 5.8 mph 47 % 0 in
11:52 74.3 °F 52.9 °F 30 in SSW 8.1 mph 8.1 mph 47 % 0 in
11:57 74.3 °F 52.2 °F 30 in WSW 6.9 mph 6.9 mph 46 % 0 in
12:02 74.8 °F 52.7 °F 30 in WSW 3.5 mph 3.5 mph 46 % 0 in
12:07 75.2 °F 52.3 °F 30 in SW 9.2 mph 9.2 mph 45 % 0 in
12:12 74.7 °F 52 °F 30 in SW 6.9 mph 6.9 mph 45 % 0 in
12:17 74.1 °F 50.2 °F 30 in North 5.8 mph 5.8 mph 43 % 0 in
12:22 74.3 °F 50.4 °F 30 in West 5.8 mph 5.8 mph 43 % 0 in
12:27 75.6 °F 51.4 °F 30 in West 3.5 mph 3.5 mph 43 % 0 in
12:32 75.6 °F 51.4 °F 30 in SW 5.8 mph 5.8 mph 43 % 0 in
12:37 76.5 °F 51.6 °F 30 in North 11.5 mph 11.5 mph 42 % 0 in
12:42 76.1 °F 51.3 °F 30 in West 8.1 mph 8.1 mph 42 % 0 in
12:47 76.3 °F 50.7 °F 30 in SW 6.9 mph 6.9 mph 41 % 0 in
12:52 77 °F 50.2 °F 30 in SW 4.6 mph 4.6 mph 39 % 0 in
12:57 76.8 °F 50 °F 30 in SW 4.6 mph 4.6 mph 39 % 0 in
13:02 77.4 °F 49.8 °F 30 in WNW 6 mph 6 mph 38 % 0 in
13:07 76.8 °F 49.3 °F 30 in SW 5.8 mph 5.8 mph 38 % 0 in
13:12 77.4 °F 48.9 °F 30 in WSW 9.7 mph 9.7 mph 37 % 0 in
13:17 77 °F 47.1 °F 30 in West 8.1 mph 8.1 mph 35 % 0 in
13:22 76.3 °F 46.6 °F 30 in SSW 5.8 mph 5.8 mph 35 % 0 in
13:27 76.8 °F 46.2 °F 30 in WNW 6.9 mph 7.8 mph 34 % 0 in
13:32 77.2 °F 45.9 °F 30 in WSW 10.9 mph 10.9 mph 33 % 0 in
13:37 77.2 °F 44.2 °F 30 in NNW 10.4 mph 10.4 mph 31 % 0 in
13:42 77 °F 44.1 °F 30 in WNW 5.8 mph 5.8 mph 31 % 0 in
13:47 77.2 °F 44.2 °F 30 in WNW 4.6 mph 4.6 mph 31 % 0 in
13:52 77.9 °F 44.8 °F 30 in WSW 6.9 mph 6.9 mph 31 % 0 in
13:57 77.4 °F 43.5 °F 30 in West 10.4 mph 10.4 mph 30 % 0 in
14:02 77.4 °F 43.5 °F 30 in NNW 6.9 mph 6.9 mph 30 % 0 in
14:07 77.7 °F 43.9 °F 30 in NW 6.7 mph 6.7 mph 30 % 0 in
14:12 78.4 °F 45.3 °F 30 in WNW 6.9 mph 6.9 mph 31 % 0 in
14:17 77.9 °F 44.1 °F 30 in West 9.2 mph 9.2 mph 30 % 0 in
14:22 77.9 °F 44.1 °F 30 in SW 8.1 mph 8.1 mph 30 % 0 in
14:27 78.3 °F 44.2 °F 30 in NW 8.1 mph 8.1 mph 30 % 0 in
14:32 78.3 °F 44.2 °F 30 in WSW 8.1 mph 8.1 mph 30 % 0 in
14:37 77.7 °F 43.9 °F 30 in WSW 8.1 mph 8.1 mph 30 % 0 in
14:42 77.4 °F 43.5 °F 30 in SW 6.9 mph 6.9 mph 30 % 0 in
14:47 77 °F 43.2 °F 30 in West 4.9 mph 4.9 mph 30 % 0 in
14:52 76.5 °F 42.6 °F 30 in WSW 5.8 mph 5.8 mph 30 % 0 in
14:57 77.2 °F 42.4 °F 30 in NW 10.4 mph 10.4 mph 29 % 0 in
14:58 77.2 °F 42.4 °F 30 in WSW 10.4 mph 10.4 mph 29 % 0 in
15:03 77.5 °F 42.8 °F 30 in WSW 3.6 mph 4.5 mph 29 % 0 in
15:08 78.4 °F 44.4 °F 30 in SSE 3.6 mph 3.6 mph 30 % 0 in
15:09 78.8 °F 44.8 °F 30 in West 7.4 mph 7.4 mph 30 % 0 in
15:14 79 °F 45 °F 30 in WNW 8.1 mph 8.1 mph 30 % 0 in
15:19 78.8 °F 44.8 °F 30 in West 5.8 mph 5.8 mph 30 % 0 in
15:24 79 °F 45 °F 30 in SW 5.8 mph 5.8 mph 30 % 0 in
15:29 78.6 °F 44.6 °F 30 in WNW 6.9 mph 6.9 mph 30 % 0 in
15:34 79.5 °F 44.4 °F 30 in WNW 4.6 mph 4.6 mph 29 % 0 in
15:39 79.5 °F 44.4 °F 30 in West 8.1 mph 8.1 mph 29 % 0 in
15:44 78.8 °F 43 °F 30 in West 9.7 mph 9.7 mph 28 % 0 in
15:49 79.2 °F 44.2 °F 30 in SW 6 mph 6 mph 29 % 0 in
15:54 79.7 °F 44.6 °F 30 in WSW 6.4 mph 6.4 mph 29 % 0 in
15:59 79.3 °F 44.2 °F 30 in WSW 9.2 mph 9.2 mph 29 % 0 in
16:04 79.5 °F 44.4 °F 30 in WSW 4.6 mph 4.6 mph 29 % 0 in
16:09 79.7 °F 44.6 °F 30 in WSW 8.1 mph 8.1 mph 29 % 0 in
16:14 79.2 °F 43.2 °F 30 in WNW 7.8 mph 7.8 mph 28 % 0 in
16:19 78.8 °F 43 °F 30 in West 4.6 mph 4.6 mph 28 % 0 in
16:24 79.2 °F 43.2 °F 30 in WNW 9.4 mph 9.4 mph 28 % 0 in
16:29 79 °F 43.2 °F 30 in SW 4.6 mph 4.6 mph 28 % 0 in
16:34 79 °F 43.2 °F 30 in SW 5.8 mph 5.8 mph 28 % 0 in
16:39 79.3 °F 43.3 °F 30 in West 5.8 mph 5.8 mph 28 % 0 in
16:44 79.5 °F 44.4 °F 30 in SW 5.8 mph 5.8 mph 29 % 0 in
16:49 79.5 °F 44.4 °F 30 in NW 5.8 mph 5.8 mph 29 % 0 in
16:54 79 °F 43.2 °F 30 in WSW 8.1 mph 8.1 mph 28 % 0 in
16:59 79.5 °F 44.4 °F 30 in West 5.8 mph 5.8 mph 29 % 0 in
17:04 80.1 °F 45 °F 30 in WSW 4.6 mph 4.6 mph 29 % 0 in
17:09 79.9 °F 43.9 °F 30 in WNW 11.5 mph 11.5 mph 28 % 0 in
17:14 79.7 °F 43.7 °F 30 in WSW 4.3 mph 4.3 mph 28 % 0 in
17:19 79.7 °F 43.7 °F 30 in West 9.2 mph 9.2 mph 28 % 0 in
17:24 79.7 °F 44.6 °F 30 in West 6.9 mph 6.9 mph 29 % 0 in
17:29 79.3 °F 43.3 °F 30 in South 8.1 mph 8.1 mph 28 % 0 in
17:34 79.5 °F 44.4 °F 30 in WNW 5.8 mph 5.8 mph 29 % 0 in
17:39 78.8 °F 43.9 °F 30 in West 5.8 mph 5.8 mph 29 % 0 in
17:40 78.8 °F 43.9 °F 30 in SW 7.4 mph 7.4 mph 29 % 0 in
17:45 78.4 °F 43.5 °F 30 in WSW 8.5 mph 8.5 mph 29 % 0 in
17:50 77.5 °F 43.5 °F 30 in SW 5.9 mph 5.9 mph 30 % 0 in
17:55 77 °F 43.2 °F 30 in SW 5.8 mph 5.8 mph 30 % 0 in
18:00 76.3 °F 43.3 °F 30 in SSW 5.8 mph 5.8 mph 31 % 0 in
18:05 75.7 °F 43.9 °F 30 in WSW 6.9 mph 6.9 mph 32 % 0 in
18:10 76.5 °F 44.4 °F 30 in SW 6.9 mph 6.9 mph 32 % 0 in
18:15 75.7 °F 44.6 °F 30 in SSW 11.5 mph 11.5 mph 33 % 0 in
18:20 75 °F 44.1 °F 30 in SW 5.8 mph 5.8 mph 33 % 0 in
18:25 74.8 °F 44.6 °F 30 in SSW 6.4 mph 6.4 mph 34 % 0 in
18:30 74.8 °F 44.6 °F 30 in South 6.9 mph 6.9 mph 34 % 0 in
18:35 74.8 °F 44.6 °F 30 in West 8.5 mph 8.5 mph 34 % 0 in
18:40 74.8 °F 45.3 °F 30 in SW 10.4 mph 10.4 mph 35 % 0 in
18:45 75.2 °F 46.4 °F 30 in SSW 4.9 mph 4.9 mph 36 % 0 in
18:50 75 °F 46.2 °F 30 in SW 9.2 mph 9.2 mph 36 % 0 in
18:55 74.7 °F 45.9 °F 30 in SW 11.5 mph 11.5 mph 36 % 0 in
19:00 74.3 °F 45.7 °F 30 in SSW 12.7 mph 12.7 mph 36 % 0 in
19:05 74.1 °F 45.5 °F 30 in SW 6.9 mph 6.9 mph 36 % 0 in
19:10 74.1 °F 45.5 °F 30 in SW 8.1 mph 8.1 mph 36 % 0 in
19:12 74.1 °F 45.5 °F 30 in SSW 10.4 mph 10.4 mph 36 % 0 in
19:17 73.9 °F 45.3 °F 30 in SW 12.7 mph 12.7 mph 36 % 0 in
19:22 73.6 °F 45 °F 30 in SW 15 mph 15 mph 36 % 0 in
19:27 73.6 °F 45 °F 30 in SSW 8.1 mph 8.1 mph 36 % 0 in
19:32 73 °F 45.1 °F 30 in SSW 13.8 mph 13.8 mph 37 % 0 in
19:37 72.9 °F 45.1 °F 30 in SW 9.2 mph 9.2 mph 37 % 0 in
19:42 72.5 °F 44.8 °F 30 in SW 10.4 mph 10.4 mph 37 % 0 in
19:47 72.1 °F 45.1 °F 30 in SSW 6.9 mph 6.9 mph 38 % 0 in
19:52 71.8 °F 44.8 °F 30 in SW 15 mph 15 mph 38 % 0 in
19:57 71.6 °F 45.3 °F 30 in SW 9.2 mph 9.2 mph 39 % 0 in
20:02 71.2 °F 45 °F 30 in SSW 12.8 mph 12.8 mph 39 % 0 in
20:07 70.7 °F 45.1 °F 30 in South 10.4 mph 10.4 mph 40 % 0 in
20:12 70.3 °F 45 °F 30 in South 12.7 mph 12.7 mph 40 % 0 in
20:17 70 °F 45.1 °F 30 in SW 11.5 mph 11.5 mph 41 % 0 in
20:22 69.6 °F 45 °F 30 in SW 9.2 mph 9.2 mph 41 % 0 in
20:27 69.4 °F 45.3 °F 30 in SW 5.8 mph 5.8 mph 42 % 0 in
20:32 68.9 °F 45 °F 30 in SW 8.1 mph 8.1 mph 42 % 0 in
20:37 68.7 °F 45.3 °F 30 in South 10.4 mph 10.4 mph 43 % 0 in
20:42 68.4 °F 45 °F 30 in SW 7.4 mph 7.4 mph 43 % 0 in
20:47 68.2 °F 45.3 °F 30 in WSW 8.5 mph 8.5 mph 44 % 0 in
20:52 67.8 °F 45.1 °F 30 in SW 6.9 mph 6.9 mph 44 % 0 in
20:57 67.6 °F 45 °F 30.1 in SW 9.2 mph 9.2 mph 44 % 0 in
21:02 67.5 °F 45.3 °F 30.1 in SW 6.2 mph 6.2 mph 45 % 0 in
21:07 67.1 °F 45 °F 30.1 in SW 9.2 mph 9.2 mph 45 % 0 in
21:12 66.9 °F 45.5 °F 30.1 in SW 5.8 mph 5.8 mph 46 % 0 in
21:17 66.6 °F 45.1 °F 30.1 in SSW 7.4 mph 7.4 mph 46 % 0 in
21:22 66.4 °F 45.5 °F 30.1 in SW 6.9 mph 6.9 mph 47 % 0 in
21:27 66.2 °F 45.3 °F 30.1 in SW 4.6 mph 4.6 mph 47 % 0 in
21:32 66.2 °F 45.3 °F 30.1 in WSW 5.8 mph 5.8 mph 47 % 0 in
21:37 65.8 °F 46 °F 30.1 in SW 4.6 mph 4.6 mph 49 % 0 in
21:42 65.7 °F 46 °F 30.1 in SW 5.6 mph 5.6 mph 49 % 0 in
21:47 65.5 °F 45.9 °F 30.1 in SW 5.8 mph 5.8 mph 49 % 0 in
21:52 65.3 °F 45.7 °F 30.1 in SSW 4.6 mph 4.6 mph 49 % 0 in
21:57 65.1 °F 45.5 °F 30.1 in SW 4.6 mph 4.6 mph 49 % 0 in
22:02 65.1 °F 45.5 °F 30.1 in SW 4.6 mph 4.6 mph 49 % 0 in
22:07 64.9 °F 45.9 °F 30.1 in SW 2.4 mph 2.4 mph 50 % 0 in
22:12 64.8 °F 45.7 °F 30.1 in SW 2.6 mph 2.6 mph 50 % 0 in
22:17 64.4 °F 45.3 °F 30.1 in SW 3.5 mph 3.5 mph 50 % 0 in
22:22 64.4 °F 45.3 °F 30.1 in WSW 2.4 mph 2.4 mph 50 % 0 in
22:27 64.2 °F 45.1 °F 30.1 in SW 3.5 mph 3.5 mph 50 % 0 in
22:32 64 °F 45 °F 30.1 in WSW 3.6 mph 3.6 mph 50 % 0 in
22:37 64 °F 45 °F 30.1 in WSW 3.5 mph 3.5 mph 50 % 0 in
22:42 63.7 °F 45.1 °F 30.1 in WSW 4 mph 4 mph 51 % 0 in
22:47 63.5 °F 45 °F 30.1 in SSW 3.5 mph 3.5 mph 51 % 0 in
22:52 63.5 °F 45 °F 30.1 in South 3.5 mph 3.5 mph 51 % 0 in
22:57 63.1 °F 44.8 °F 30.1 in SW 4 mph 4 mph 51 % 0 in
23:02 63.1 °F 45.1 °F 30.1 in SW 3.5 mph 3.5 mph 52 % 0 in
23:07 63.3 °F 45.3 °F 30.1 in SW 3.3 mph 3.3 mph 52 % 0 in
23:12 63.3 °F 45.3 °F 30.1 in SSW 3.5 mph 3.5 mph 52 % 0 in
23:17 63.1 °F 45.1 °F 30.1 in SW 3.5 mph 3.5 mph 52 % 0 in
23:22 63.1 °F 45.1 °F 30.1 in SW 4 mph 4 mph 52 % 0 in
23:27 63.1 °F 45.7 °F 30.1 in SW 3.5 mph 3.5 mph 53 % 0 in
23:32 62.8 °F 45.3 °F 30.1 in WSW 3.5 mph 3.5 mph 53 % 0 in
23:37 63 °F 45.7 °F 30.1 in SW 4.6 mph 4.6 mph 53 % 0 in
23:42 63 °F 45.7 °F 30.1 in WSW 3.5 mph 3.5 mph 53 % 0 in
23:47 63 °F 45.7 °F 30.1 in WSW 2.9 mph 2.9 mph 53 % 0 in
23:52 63 °F 45.7 °F 30.1 in West 2.3 mph 2.3 mph 53 % 0 in
23:57 63 °F 45.7 °F 30.1 in WSW 2.6 mph 2.6 mph 53 % 0 in
Meteo Sesrovires
Elogis d' Weather Underground - 3.5 mb

Guio original per  Jim McMurry - jmcmurry@mwt.net Adaptat per a la plantilla per  Wim van der Kuil - Leuven-Template.eu

Trobareu la nostra informacio del temps tambe a:

Weather Underground

AWEKAS